createdAt,value
2019-04-04T00:00:27.441Z,99899.23
2019-04-04T00:01:00.719Z,99897.49
2019-04-04T00:01:33.938Z,99898.79
2019-04-04T00:02:07.104Z,99893.06
2019-04-04T00:02:38.384Z,99897.89
2019-04-04T00:03:09.679Z,99899.20
2019-04-04T00:03:42.970Z,99897.46
2019-04-04T00:04:14.338Z,99898.75
2019-04-04T00:04:45.622Z,99897.42
2019-04-04T00:05:16.938Z,99899.17
2019-04-04T00:05:48.214Z,99894.78
2019-04-04T00:06:19.520Z,99896.09
2019-04-04T00:06:51.815Z,99876.76
2019-04-04T00:07:23.195Z,99876.76
2019-04-04T00:07:54.475Z,99889.50
2019-04-04T00:08:25.742Z,99896.54
2019-04-04T00:08:57.045Z,99896.54
2019-04-04T00:09:31.161Z,99895.63
2019-04-04T00:10:05.003Z,99891.26
2019-04-04T00:10:36.280Z,99892.09
2019-04-04T00:11:07.661Z,99889.93
2019-04-04T00:11:38.948Z,99892.08
2019-04-04T00:12:10.353Z,99896.48
2019-04-04T00:12:41.737Z,99887.69
2019-04-04T00:13:13.047Z,99893.84
2019-04-04T00:13:44.539Z,99893.84
2019-04-04T00:14:15.919Z,99893.81
2019-04-04T00:14:47.403Z,99887.66
2019-04-04T00:15:18.797Z,99891.13
2019-04-04T00:15:50.181Z,99886.31
2019-04-04T00:16:21.573Z,99894.17
2019-04-04T00:16:52.968Z,99899.43
2019-04-04T00:17:24.395Z,99890.25
2019-04-04T00:17:55.902Z,99899.87
2019-04-04T00:18:27.996Z,99899.39
2019-04-04T00:18:59.561Z,99904.66
2019-04-04T00:19:30.983Z,99902.44
2019-04-04T00:20:05.354Z,99900.67
2019-04-04T00:20:37.772Z,99899.81
2019-04-04T00:21:09.139Z,99898.92
2019-04-04T00:21:40.475Z,99896.73
2019-04-04T00:22:11.733Z,99893.20
2019-04-04T00:22:43.185Z,99898.88
2019-04-04T00:23:14.730Z,99896.26
2019-04-04T00:23:46.173Z,99895.40
2019-04-04T00:24:17.627Z,99891.45
2019-04-04T00:24:49.073Z,99893.63
2019-04-04T00:25:20.521Z,99891.44
2019-04-04T00:25:52.962Z,99897.10
2019-04-04T00:26:24.501Z,99894.48
2019-04-04T00:26:56.034Z,99896.68
2019-04-04T00:27:27.450Z,99894.48
2019-04-04T00:27:58.838Z,99890.98
2019-04-04T00:28:30.573Z,99877.29
2019-04-04T00:29:02.128Z,99877.29
2019-04-04T00:29:33.794Z,99896.16
2019-04-04T00:30:05.980Z,99893.97
2019-04-04T00:30:37.374Z,99890.92
2019-04-04T00:31:08.763Z,99891.78
2019-04-04T00:31:40.157Z,99887.38
2019-04-04T00:32:11.538Z,99891.76
2019-04-04T00:32:42.932Z,99889.99
2019-04-04T00:33:14.320Z,99887.34
2019-04-04T00:33:45.716Z,99887.34
2019-04-04T00:34:17.298Z,99893.03
2019-04-04T00:34:48.754Z,99894.31
2019-04-04T00:35:20.196Z,99889.47
2019-04-04T00:35:51.605Z,99889.93
2019-04-04T00:36:23.002Z,99888.16
2019-04-04T00:36:54.432Z,99872.72
2019-04-04T00:37:25.729Z,99872.72
2019-04-04T00:37:57.107Z,99885.94
2019-04-04T00:38:29.921Z,99883.31
2019-04-04T00:39:01.325Z,99885.05
2019-04-04T00:39:33.003Z,99887.25
2019-04-04T00:40:05.618Z,99887.25
2019-04-04T00:40:37.001Z,99886.37
2019-04-04T00:41:08.489Z,99883.74
2019-04-04T00:41:39.877Z,99886.83
2019-04-04T00:42:11.303Z,99888.55
2019-04-04T00:42:42.705Z,99886.33
2019-04-04T00:43:14.125Z,99892.47
2019-04-04T00:43:45.665Z,99888.53
2019-04-04T00:44:17.121Z,99892.88
2019-04-04T00:44:48.565Z,99887.14
2019-04-04T00:45:20.018Z,99885.38
2019-04-04T00:45:51.479Z,99886.27
2019-04-04T00:46:22.944Z,99886.23
2019-04-04T00:46:54.519Z,99888.41
2019-04-04T00:47:25.961Z,99885.34
2019-04-04T00:47:57.394Z,99888.36
2019-04-04T00:48:28.772Z,99890.56
2019-04-04T00:49:00.574Z,99885.28
2019-04-04T00:49:31.935Z,99885.69
2019-04-04T00:50:06.701Z,99889.63
2019-04-04T00:50:38.230Z,99891.38
2019-04-04T00:51:10.658Z,99886.09
2019-04-04T00:51:42.025Z,99888.72
2019-04-04T00:52:13.438Z,99883.48
2019-04-04T00:52:44.810Z,99888.27
2019-04-04T00:53:16.344Z,99880.37
2019-04-04T00:53:47.708Z,99885.62
2019-04-04T00:54:19.128Z,99882.99
2019-04-04T00:54:50.500Z,99875.55
2019-04-04T00:55:22.030Z,99884.28
2019-04-04T00:55:53.414Z,99882.06
2019-04-04T00:56:24.740Z,99884.66
2019-04-04T00:56:56.124Z,99883.78
2019-04-04T00:57:27.441Z,99878.96
2019-04-04T00:57:58.828Z,99884.61
2019-04-04T00:58:30.470Z,99884.15
2019-04-04T00:59:03.089Z,99884.58
2019-04-04T00:59:34.613Z,99879.79
2019-04-04T01:00:06.797Z,99883.27
2019-04-04T01:00:38.264Z,99884.58
2019-04-04T01:01:09.859Z,99885.02
2019-04-04T01:01:41.398Z,99883.67
2019-04-04T01:02:12.777Z,99888.03
2019-04-04T01:02:44.315Z,99888.47
2019-04-04T01:03:15.722Z,99883.62
2019-04-04T01:03:47.183Z,99889.75
2019-04-04T01:04:18.707Z,99885.81
2019-04-04T01:04:50.161Z,99890.61
2019-04-04T01:05:21.724Z,99889.27
2019-04-04T01:05:53.187Z,99886.19
2019-04-04T01:06:24.637Z,99889.27
2019-04-04T01:06:56.196Z,99891.43
2019-04-04T01:07:27.764Z,99884.02
2019-04-04T01:07:59.220Z,99890.58
2019-04-04T01:08:30.888Z,99880.95
2019-04-04T01:09:05.112Z,99880.92
2019-04-04T01:09:36.925Z,99885.25
2019-04-04T01:10:08.295Z,99891.34
2019-04-04T01:10:39.714Z,99884.34
2019-04-04T01:11:11.091Z,99888.24
2019-04-04T01:11:42.515Z,99883.85
2019-04-04T01:12:13.879Z,99884.31
2019-04-04T01:12:45.294Z,99882.12
2019-04-04T01:13:16.692Z,99884.31
2019-04-04T01:13:48.144Z,99882.12
2019-04-04T01:14:19.899Z,99888.22
2019-04-04T01:14:51.452Z,99879.44
2019-04-04T01:15:22.988Z,99885.11
2019-04-04T01:15:54.544Z,99883.34
2019-04-04T01:16:27.007Z,99879.84
2019-04-04T01:16:58.577Z,99879.80
2019-04-04T01:17:30.120Z,99885.91
2019-04-04T01:18:01.600Z,99885.02
2019-04-04T01:18:33.028Z,99877.58
2019-04-04T01:19:04.491Z,99880.63
2019-04-04T01:19:35.917Z,99884.11
2019-04-04T01:20:07.681Z,99877.98
2019-04-04T01:20:39.094Z,99884.56
2019-04-04T01:21:10.509Z,99880.59
2019-04-04T01:21:41.991Z,99879.29
2019-04-04T01:22:13.382Z,99879.29
2019-04-04T01:22:44.809Z,99879.26
2019-04-04T01:23:16.221Z,99873.55
2019-04-04T01:23:47.725Z,99873.98
2019-04-04T01:24:19.132Z,99878.34
2019-04-04T01:24:50.547Z,99877.88
2019-04-04T01:25:21.947Z,99873.07
2019-04-04T01:25:53.341Z,99878.31
2019-04-04T01:26:24.744Z,99878.73
2019-04-04T01:26:56.140Z,99874.34
2019-04-04T01:27:28.527Z,99873.47
2019-04-04T01:27:59.926Z,99876.09
2019-04-04T01:28:32.356Z,99879.95
2019-04-04T01:29:05.741Z,99879.53
2019-04-04T01:29:37.209Z,99874.29
2019-04-04T01:30:11.740Z,99872.95
2019-04-04T01:30:43.598Z,99875.11
2019-04-04T01:31:15.648Z,99872.91
2019-04-04T01:31:47.054Z,99878.16
2019-04-04T01:32:18.370Z,99875.53
2019-04-04T01:32:49.766Z,99877.73
2019-04-04T01:33:21.104Z,99871.14
2019-04-04T01:33:52.397Z,99874.66
2019-04-04T01:34:23.692Z,99875.11
2019-04-04T01:34:55.132Z,99874.65
2019-04-04T01:35:26.538Z,99872.48
2019-04-04T01:35:57.922Z,99868.55
2019-04-04T01:36:29.313Z,99867.67
2019-04-04T01:37:00.778Z,99867.67
2019-04-04T01:37:32.071Z,99866.78
2019-04-04T01:38:03.838Z,99866.36
2019-04-04T01:38:35.243Z,99874.65
2019-04-04T01:39:06.733Z,99871.17
2019-04-04T01:39:38.183Z,99872.03
2019-04-04T01:40:09.637Z,99864.59
2019-04-04T01:40:40.990Z,99869.41
2019-04-04T01:41:12.368Z,99871.57
2019-04-04T01:41:43.719Z,99867.18
2019-04-04T01:42:15.263Z,99869.80
2019-04-04T01:42:47.719Z,99863.25
2019-04-04T01:43:19.079Z,99870.66
2019-04-04T01:44:04.145Z,99871.97
2019-04-04T01:44:24.658Z,99870.66
2019-04-04T01:44:55.981Z,99867.15
2019-04-04T01:45:27.231Z,99870.23
2019-04-04T01:45:58.654Z,99872.84
2019-04-04T01:46:30.025Z,99868.89
2019-04-04T01:47:01.443Z,99869.73
2019-04-04T01:47:33.005Z,99868.86
2019-04-04T01:48:04.335Z,99867.12
2019-04-04T01:48:35.705Z,99869.74
2019-04-04T01:49:07.033Z,99869.73
2019-04-04T01:49:38.301Z,99872.78
2019-04-04T01:50:09.729Z,99864.92
2019-04-04T01:50:40.996Z,99864.92
2019-04-04T01:51:12.319Z,99863.58
2019-04-04T01:51:43.588Z,99865.74
2019-04-04T01:52:14.916Z,99867.94
2019-04-04T01:52:48.131Z,99861.39
2019-04-04T01:53:19.506Z,99860.50
2019-04-04T01:53:50.771Z,99864.44
2019-04-04T01:54:22.205Z,99865.28
2019-04-04T01:54:53.478Z,99865.28
2019-04-04T01:55:24.835Z,99862.66
2019-04-04T01:55:56.096Z,99865.71
2019-04-04T01:56:27.424Z,99867.45
2019-04-04T01:56:58.792Z,99867.45
2019-04-04T01:57:30.523Z,99864.80
2019-04-04T01:58:01.798Z,99866.53
2019-04-04T01:58:33.464Z,99865.22
2019-04-04T01:59:04.754Z,99866.56
2019-04-04T01:59:36.074Z,99868.30
2019-04-04T02:00:08.158Z,99868.30
2019-04-04T02:00:39.596Z,99869.58
2019-04-04T02:01:10.967Z,99866.53
2019-04-04T02:01:42.264Z,99865.25
2019-04-04T02:02:13.667Z,99865.25
2019-04-04T02:02:45.024Z,99866.14
2019-04-04T02:03:16.301Z,99862.20
2019-04-04T02:03:47.724Z,99859.55
2019-04-04T02:04:19.109Z,99863.02
2019-04-04T02:04:50.385Z,99862.57
2019-04-04T02:05:21.706Z,99867.41
2019-04-04T02:05:52.977Z,99866.11
2019-04-04T02:06:24.397Z,99865.68
2019-04-04T02:06:58.815Z,99863.02
2019-04-04T02:07:29.848Z,99863.03
2019-04-04T02:08:01.687Z,99861.26
2019-04-04T02:08:41.819Z,99858.61
2019-04-04T02:09:13.225Z,99856.41
2019-04-04T02:09:46.427Z,99857.72
2019-04-04T02:10:17.676Z,99858.57
2019-04-04T02:10:52.007Z,99860.77
2019-04-04T02:11:23.295Z,99856.84
2019-04-04T02:12:03.395Z,99856.84
2019-04-04T02:12:34.691Z,99861.19
2019-04-04T02:13:06.014Z,99864.27
2019-04-04T02:13:38.876Z,99862.96
2019-04-04T02:14:19.531Z,99862.96
2019-04-04T02:14:56.806Z,99859.45
2019-04-04T02:15:30.873Z,99865.13
2019-04-04T02:16:02.161Z,99861.19
2019-04-04T02:16:36.270Z,99855.09
2019-04-04T02:17:15.270Z,99860.77
2019-04-04T02:17:46.557Z,99862.08
2019-04-04T02:18:17.864Z,99855.53
2019-04-04T02:18:49.154Z,99859.00
2019-04-04T02:19:20.478Z,99860.73
2019-04-04T02:19:51.812Z,99855.92
2019-04-04T02:20:23.177Z,99857.69
2019-04-04T02:20:57.684Z,99858.15
2019-04-04T02:21:28.782Z,99860.77
2019-04-04T02:22:00.851Z,99856.41
2019-04-04T02:22:32.207Z,99859.84
2019-04-04T02:23:03.742Z,99855.92
2019-04-04T02:23:35.083Z,99860.27
2019-04-04T02:24:06.434Z,99862.01
2019-04-04T02:24:37.846Z,99855.45
2019-04-04T02:25:09.240Z,99858.97
2019-04-04T02:25:40.714Z,99866.40
2019-04-04T02:26:12.063Z,99863.78
2019-04-04T02:26:43.442Z,99860.27
2019-04-04T02:27:18.883Z,99862.01
2019-04-04T02:27:50.195Z,99861.58
2019-04-04T02:28:30.023Z,99861.16
2019-04-04T02:29:06.951Z,99855.92
2019-04-04T02:29:39.927Z,99856.77
2019-04-04T02:30:21.145Z,99853.30
2019-04-04T02:30:55.217Z,99856.77
2019-04-04T02:31:34.318Z,99850.68
2019-04-04T02:32:16.348Z,99851.99
2019-04-04T02:32:53.838Z,99852.41
2019-04-04T02:33:35.550Z,99851.50
2019-04-04T02:34:09.649Z,99849.73
2019-04-04T02:34:40.929Z,99845.80
2019-04-04T02:35:12.220Z,99845.38
2019-04-04T02:35:43.983Z,99848.84
2019-04-04T02:36:16.762Z,99849.73
2019-04-04T02:36:49.856Z,99848.84
2019-04-04T02:37:22.079Z,99845.80
2019-04-04T02:37:59.170Z,99847.50
2019-04-04T02:38:30.689Z,99846.65
2019-04-04T02:39:14.134Z,99840.98
2019-04-04T02:39:51.273Z,99827.75
2019-04-04T02:40:22.570Z,99850.61
2019-04-04T02:40:53.916Z,99853.27
2019-04-04T02:41:38.874Z,99851.53
2019-04-04T02:42:10.213Z,99855.42
2019-04-04T02:42:41.846Z,99856.77
2019-04-04T02:43:13.202Z,99859.81
2019-04-04T02:43:55.164Z,99857.59
2019-04-04T02:44:26.502Z,99853.66
2019-04-04T02:45:05.111Z,99849.69
2019-04-04T02:45:48.795Z,99854.08
2019-04-04T02:46:33.940Z,99853.23
2019-04-04T02:47:17.339Z,99846.22
2019-04-04T02:47:56.001Z,99844.45
2019-04-04T02:48:33.204Z,99845.30
2019-04-04T02:49:04.551Z,99849.23
2019-04-04T02:49:35.935Z,99850.97
2019-04-04T02:50:07.335Z,99851.36
2019-04-04T02:50:38.629Z,99848.31
2019-04-04T02:51:28.302Z,99846.55
2019-04-04T02:52:07.142Z,99846.13
2019-04-04T02:52:38.476Z,99845.66
2019-04-04T02:53:10.899Z,99849.59
2019-04-04T02:53:42.244Z,99849.63
2019-04-04T02:54:13.589Z,99847.86
2019-04-04T02:54:44.945Z,99847.86
2019-04-04T02:55:21.902Z,99845.70
2019-04-04T02:55:55.893Z,99846.13
2019-04-04T02:56:34.973Z,99850.52
2019-04-04T02:57:07.931Z,99847.43
2019-04-04T02:58:15.046Z,99843.08
2019-04-04T02:58:47.339Z,99849.63
2019-04-04T02:59:22.060Z,99842.62
2019-04-04T02:59:54.283Z,99843.47
2019-04-04T03:00:30.383Z,99842.62
2019-04-04T03:01:01.673Z,99847.86
2019-04-04T03:01:35.972Z,99848.31
2019-04-04T03:02:07.307Z,99850.05
2019-04-04T03:02:38.662Z,99847.01
2019-04-04T03:03:17.463Z,99852.25
2019-04-04T03:03:57.706Z,99820.61
2019-04-04T03:04:57.798Z,99820.61
2019-04-04T03:05:31.667Z,99824.11
2019-04-04T03:06:05.463Z,99840.42
2019-04-04T03:06:36.801Z,99840.84
2019-04-04T03:07:11.611Z,99830.34
2019-04-04T03:07:45.569Z,99838.63
2019-04-04T03:08:16.889Z,99835.51
2019-04-04T03:09:09.046Z,99828.11
2019-04-04T03:09:43.525Z,99835.08
2019-04-04T03:10:16.481Z,99833.77
2019-04-04T03:10:49.460Z,99833.77
2019-04-04T03:11:40.002Z,99834.20
2019-04-04T03:12:25.660Z,99809.96
2019-04-04T03:12:58.502Z,99835.47
2019-04-04T03:13:32.237Z,99832.81
2019-04-04T03:14:04.757Z,99831.90
2019-04-04T03:14:41.691Z,99831.94
2019-04-04T03:15:13.017Z,99831.05
2019-04-04T03:15:49.075Z,99828.86
2019-04-04T03:16:21.513Z,99828.39
2019-04-04T03:16:56.329Z,99831.90
2019-04-04T03:17:32.634Z,99833.64
2019-04-04T03:18:06.876Z,99816.08
2019-04-04T03:18:38.232Z,99816.08
2019-04-04T03:19:11.077Z,99833.67
2019-04-04T03:19:43.787Z,99831.90
2019-04-04T03:20:18.612Z,99831.47
2019-04-04T03:20:52.763Z,99831.02
2019-04-04T03:21:24.029Z,99834.94
2019-04-04T03:21:56.483Z,99838.87
2019-04-04T03:22:28.407Z,99833.20
2019-04-04T03:23:08.811Z,99836.22
2019-04-04T03:23:42.745Z,99834.45
2019-04-04T03:24:38.682Z,99836.22
2019-04-04T03:25:08.673Z,99841.84
2019-04-04T03:25:46.759Z,99828.29
2019-04-04T03:26:18.980Z,99837.91
2019-04-04T03:26:52.217Z,99835.30
2019-04-04T03:27:25.801Z,99835.75
2019-04-04T03:27:58.264Z,99829.17
2019-04-04T03:28:31.862Z,99839.69
2019-04-04T03:29:05.466Z,99837.48
2019-04-04T03:29:39.179Z,99833.95
2019-04-04T03:30:14.347Z,99834.84
2019-04-04T03:31:00.620Z,99836.14
2019-04-04T03:31:22.600Z,99815.05
2019-04-04T03:31:53.960Z,99833.98
2019-04-04T03:32:25.257Z,99824.36
2019-04-04T03:33:02.265Z,99835.33
2019-04-04T03:33:33.643Z,99835.33
2019-04-04T03:34:12.459Z,99817.25
2019-04-04T03:34:47.803Z,99837.91
2019-04-04T03:35:16.126Z,99835.27
2019-04-04T03:35:48.386Z,99835.72
2019-04-04T03:36:19.699Z,99833.53
2019-04-04T03:36:53.750Z,99833.53
2019-04-04T03:37:25.065Z,99837.03
2019-04-04T03:37:57.304Z,99833.53
2019-04-04T03:38:34.693Z,99836.57
2019-04-04T03:39:11.932Z,99827.41
2019-04-04T03:39:43.240Z,99835.72
2019-04-04T03:40:25.931Z,99815.48
2019-04-04T03:41:13.921Z,99815.48
2019-04-04T03:41:45.173Z,99835.27
2019-04-04T03:42:16.497Z,99836.56
2019-04-04T03:42:59.643Z,99828.71
2019-04-04T03:43:36.625Z,99813.67
2019-04-04T03:44:13.780Z,99813.67
2019-04-04T03:44:45.098Z,99830.83
2019-04-04T03:45:27.322Z,99834.34
2019-04-04T03:46:09.709Z,99834.34
2019-04-04T03:46:40.961Z,99832.57
2019-04-04T03:47:12.258Z,99812.79
2019-04-04T03:47:50.301Z,99812.79
2019-04-04T03:48:21.575Z,99830.83
2019-04-04T03:48:58.555Z,99821.95
2019-04-04T03:49:48.064Z,99834.34
2019-04-04T03:50:22.197Z,99832.56
2019-04-04T03:50:56.745Z,99836.88
2019-04-04T03:51:37.084Z,99830.77
2019-04-04T03:52:10.099Z,99833.84
2019-04-04T03:52:44.276Z,99837.30
2019-04-04T03:53:19.084Z,99837.31
2019-04-04T03:53:55.191Z,99836.00
2019-04-04T03:54:29.026Z,99837.30
2019-04-04T03:55:00.450Z,99832.03
2019-04-04T03:55:31.875Z,99827.65
2019-04-04T03:56:06.361Z,99835.08
2019-04-04T03:56:43.606Z,99832.88
2019-04-04T03:57:27.743Z,99828.53
2019-04-04T03:57:59.165Z,99831.15
2019-04-04T03:58:30.511Z,99832.00
2019-04-04T03:59:01.934Z,99829.38
2019-04-04T03:59:33.414Z,99823.26
2019-04-04T04:00:07.236Z,99830.69
2019-04-04T04:00:46.400Z,99822.84
2019-04-04T04:01:20.489Z,99824.11
2019-04-04T04:02:01.522Z,99828.92
2019-04-04T04:02:41.438Z,99821.48
2019-04-04T04:03:12.718Z,99821.91
2019-04-04T04:03:43.986Z,99827.15
2019-04-04T04:04:21.126Z,99825.41
2019-04-04T04:05:00.883Z,99824.53
2019-04-04T04:05:35.728Z,99829.77
2019-04-04T04:06:09.107Z,99822.76
2019-04-04T04:06:42.058Z,99828.42
2019-04-04T04:07:15.063Z,99822.76
2019-04-04T04:07:48.058Z,99823.64
2019-04-04T04:08:21.988Z,99824.95
2019-04-04T04:08:54.821Z,99823.19
2019-04-04T04:09:27.277Z,99823.64
2019-04-04T04:09:59.795Z,99826.65
2019-04-04T04:10:33.275Z,99819.26
2019-04-04T04:11:05.804Z,99823.19
2019-04-04T04:11:38.204Z,99827.11
2019-04-04T04:12:11.065Z,99827.95
2019-04-04T04:12:43.844Z,99825.30
2019-04-04T04:13:17.287Z,99827.50
2019-04-04T04:13:49.944Z,99825.30
2019-04-04T04:14:22.129Z,99828.38
2019-04-04T04:14:55.083Z,99831.00
2019-04-04T04:15:29.355Z,99836.27
2019-04-04T04:16:02.528Z,99833.23
2019-04-04T04:16:35.929Z,99824.91
2019-04-04T04:17:06.588Z,99829.69
2019-04-04T04:17:39.637Z,99831.84
2019-04-04T04:18:10.861Z,99833.61
2019-04-04T04:18:42.092Z,99834.08
2019-04-04T04:19:13.295Z,99830.15
2019-04-04T04:19:44.451Z,99833.61
2019-04-04T04:20:15.662Z,99829.69
2019-04-04T04:20:46.920Z,99830.53
2019-04-04T04:21:19.128Z,99829.19
2019-04-04T04:21:50.282Z,99833.54
2019-04-04T04:22:21.484Z,99832.69
2019-04-04T04:22:53.644Z,99833.54
2019-04-04T04:23:24.846Z,99830.50
2019-04-04T04:23:56.916Z,99831.80
2019-04-04T04:24:30.281Z,99834.00
2019-04-04T04:25:03.271Z,99831.34
2019-04-04T04:25:36.519Z,99832.19
2019-04-04T04:26:09.319Z,99832.19
2019-04-04T04:26:42.097Z,99841.35
2019-04-04T04:27:15.587Z,99838.73
2019-04-04T04:27:48.796Z,99837.38
2019-04-04T04:28:20.855Z,99840.00
2019-04-04T04:28:53.515Z,99839.55
2019-04-04T04:29:26.982Z,99835.19
2019-04-04T04:30:00.217Z,99842.58
2019-04-04T04:30:31.141Z,99835.16
2019-04-04T04:31:02.373Z,99839.55
2019-04-04T04:31:33.604Z,99841.31
2019-04-04T04:32:04.796Z,99842.62
2019-04-04T04:32:37.393Z,99845.23
2019-04-04T04:33:08.831Z,99847.85
2019-04-04T04:33:40.032Z,99843.89
2019-04-04T04:34:11.203Z,99839.08
2019-04-04T04:34:42.383Z,99836.42
2019-04-04T04:35:13.559Z,99843.42
2019-04-04T04:35:44.750Z,99850.01
2019-04-04T04:36:16.467Z,99843.47
2019-04-04T04:36:48.552Z,99848.70
2019-04-04T04:37:20.428Z,99842.58
2019-04-04T04:37:53.859Z,99846.09
2019-04-04T04:38:26.787Z,99843.47
2019-04-04T04:38:59.980Z,99851.74
2019-04-04T04:39:35.906Z,99853.05
2019-04-04T04:40:08.021Z,99843.84
2019-04-04T04:40:39.331Z,99842.54
2019-04-04T04:41:10.552Z,99846.92
2019-04-04T04:41:41.744Z,99842.58
2019-04-04T04:42:12.934Z,99843.84
2019-04-04T04:42:44.114Z,99844.27
2019-04-04T04:43:16.009Z,99846.50
2019-04-04T04:43:47.318Z,99851.28
2019-04-04T04:44:18.521Z,99850.42
2019-04-04T04:44:49.705Z,99848.66
2019-04-04T04:45:20.856Z,99846.04
2019-04-04T04:45:52.075Z,99844.27
2019-04-04T04:46:23.228Z,99845.12
2019-04-04T04:46:54.726Z,99846.00
2019-04-04T04:47:25.888Z,99848.66
2019-04-04T04:47:57.442Z,99846.50
2019-04-04T04:48:31.841Z,99853.43
2019-04-04T04:49:04.302Z,99853.43
2019-04-04T04:49:36.348Z,99849.05
2019-04-04T04:50:09.539Z,99850.39
2019-04-04T04:50:41.135Z,99852.97
2019-04-04T04:51:12.783Z,99851.66
2019-04-04T04:51:44.291Z,99853.01
2019-04-04T04:52:15.579Z,99852.97
2019-04-04T04:52:47.585Z,99848.20
2019-04-04T04:53:19.629Z,99849.50
2019-04-04T04:53:51.338Z,99846.50
2019-04-04T04:54:23.477Z,99846.04
2019-04-04T04:54:55.573Z,99848.20
2019-04-04T04:55:31.582Z,99853.39
2019-04-04T04:56:02.841Z,99848.16
2019-04-04T04:56:34.088Z,99842.92
2019-04-04T04:57:05.352Z,99841.11
2019-04-04T04:57:37.196Z,99848.16
2019-04-04T04:58:10.473Z,99848.16
2019-04-04T04:58:42.731Z,99848.16
2019-04-04T04:59:14.058Z,99842.92
2019-04-04T04:59:45.326Z,99845.54
2019-04-04T05:00:16.784Z,99844.23
2019-04-04T05:00:48.064Z,99824.48
2019-04-04T05:01:20.394Z,99846.00
2019-04-04T05:01:51.636Z,99834.98
2019-04-04T05:02:24.732Z,99849.05
2019-04-04T05:02:55.934Z,99838.95
2019-04-04T05:03:27.090Z,99854.73
2019-04-04T05:03:58.303Z,99854.73
2019-04-04T05:04:29.452Z,99825.25
2019-04-04T05:05:00.705Z,99830.61
2019-04-04T05:05:32.052Z,99853.01
2019-04-04T05:06:03.540Z,99849.97
2019-04-04T05:06:35.596Z,99838.58
2019-04-04T05:07:08.138Z,99841.62
2019-04-04T05:07:39.361Z,99846.84
2019-04-04T05:08:10.730Z,99842.92
2019-04-04T05:08:41.925Z,99844.69
2019-04-04T05:09:14.100Z,99848.63
2019-04-04T05:09:45.773Z,99848.63
2019-04-04T05:10:17.979Z,99848.20
2019-04-04T05:10:49.137Z,99848.63
2019-04-04T05:11:20.370Z,99846.00
2019-04-04T05:11:51.532Z,99848.20
2019-04-04T05:12:22.748Z,99851.66
2019-04-04T05:12:54.004Z,99850.77
2019-04-04T05:13:28.562Z,99849.47
2019-04-04T05:13:58.836Z,99848.62
2019-04-04T05:14:30.440Z,99833.72
2019-04-04T05:15:05.497Z,99842.92
2019-04-04T05:15:36.680Z,99843.81
2019-04-04T05:16:08.961Z,99837.65
2019-04-04T05:16:40.219Z,99834.57
2019-04-04T05:17:11.432Z,99847.77
2019-04-04T05:17:42.621Z,99845.62
2019-04-04T05:18:14.140Z,99849.13
2019-04-04T05:18:48.125Z,99845.20
2019-04-04T05:19:19.728Z,99852.59
2019-04-04T05:19:50.912Z,99853.94
2019-04-04T05:20:23.123Z,99853.09
2019-04-04T05:20:57.343Z,99851.36
2019-04-04T05:21:28.942Z,99855.73
2019-04-04T05:22:00.687Z,99840.34
2019-04-04T05:22:31.889Z,99858.83
2019-04-04T05:23:03.058Z,99857.52
2019-04-04T05:23:34.237Z,99853.17
2019-04-04T05:24:06.472Z,99855.83
2019-04-04T05:24:37.707Z,99850.63
2019-04-04T05:25:09.161Z,99853.25
2019-04-04T05:25:51.736Z,99858.05
2019-04-04T05:26:13.479Z,99854.09
2019-04-04T05:26:44.642Z,99856.74
2019-04-04T05:27:15.828Z,99856.33
2019-04-04T05:27:46.992Z,99857.17
2019-04-04T05:28:18.290Z,99851.94
2019-04-04T05:28:49.448Z,99858.98
2019-04-04T05:29:20.669Z,99857.25
2019-04-04T05:29:51.801Z,99856.36
2019-04-04T05:30:23.007Z,99861.17
2019-04-04T05:30:54.175Z,99855.94
2019-04-04T05:31:26.481Z,99858.59
2019-04-04T05:31:57.629Z,99856.41
2019-04-04T05:32:28.827Z,99862.09
2019-04-04T05:33:00.010Z,99860.79
2019-04-04T05:33:31.672Z,99852.09
2019-04-04T05:34:03.212Z,99858.63
2019-04-04T05:34:34.391Z,99854.28
2019-04-04T05:35:05.572Z,99854.74
2019-04-04T05:35:37.836Z,99856.48
2019-04-04T05:36:09.140Z,99851.67
2019-04-04T05:36:40.343Z,99854.74
2019-04-04T05:37:11.492Z,99848.16
2019-04-04T05:37:42.726Z,99854.32
2019-04-04T05:38:13.893Z,99829.27
2019-04-04T05:38:47.160Z,99829.27
2019-04-04T05:39:18.785Z,99850.40
2019-04-04T05:39:51.431Z,99836.31
2019-04-04T05:40:24.151Z,99857.02
2019-04-04T05:40:56.123Z,99855.28
2019-04-04T05:41:28.054Z,99857.44
2019-04-04T05:42:01.038Z,99857.91
2019-04-04T05:42:33.012Z,99863.17
2019-04-04T05:43:04.977Z,99857.05
2019-04-04T05:43:37.534Z,99855.74
2019-04-04T05:44:10.212Z,99852.20
2019-04-04T05:44:42.333Z,99858.75
2019-04-04T05:45:14.296Z,99847.86
2019-04-04T05:45:46.395Z,99854.86
2019-04-04T05:46:19.025Z,99860.09
2019-04-04T05:46:51.940Z,99853.55
2019-04-04T05:47:23.912Z,99848.31
2019-04-04T05:47:57.150Z,99849.66
2019-04-04T05:48:29.105Z,99848.35
2019-04-04T05:49:07.541Z,99850.08
2019-04-04T05:49:33.974Z,99849.63
2019-04-04T05:50:05.277Z,99852.66
2019-04-04T05:50:36.493Z,99836.38
2019-04-04T05:51:07.659Z,99856.59
2019-04-04T05:51:38.945Z,99850.05
2019-04-04T05:52:10.092Z,99855.78
2019-04-04T05:52:41.291Z,99849.23
2019-04-04T05:53:15.564Z,99852.73
2019-04-04T05:53:46.783Z,99854.05
2019-04-04T05:54:17.915Z,99857.97
2019-04-04T05:54:49.149Z,99853.16
2019-04-04T05:55:20.284Z,99860.20
2019-04-04T05:55:51.584Z,99863.71
2019-04-04T05:56:24.208Z,99865.94
2019-04-04T05:56:55.790Z,99865.05
2019-04-04T05:57:26.948Z,99859.39
2019-04-04T05:57:58.165Z,99858.97
2019-04-04T05:58:29.316Z,99856.81
2019-04-04T05:59:02.042Z,99859.43
2019-04-04T05:59:33.207Z,99860.70
2019-04-04T06:00:05.227Z,99858.13
2019-04-04T06:00:37.117Z,99857.70
2019-04-04T06:01:18.842Z,99866.89
2019-04-04T06:01:50.120Z,99864.28
2019-04-04T06:02:21.356Z,99863.00
2019-04-04T06:02:52.530Z,99866.51
2019-04-04T06:03:23.784Z,99866.09
2019-04-04T06:03:55.087Z,99866.55
2019-04-04T06:04:26.287Z,99866.58
2019-04-04T06:04:57.586Z,99864.84
2019-04-04T06:05:31.666Z,99868.77
2019-04-04T06:06:02.032Z,99861.38
2019-04-04T06:06:34.103Z,99866.19
2019-04-04T06:07:05.469Z,99864.88
2019-04-04T06:07:37.212Z,99864.03
2019-04-04T06:08:08.812Z,99865.34
2019-04-04T06:08:43.249Z,99859.22
2019-04-04T06:09:14.694Z,99865.77
2019-04-04T06:09:46.961Z,99864.45
2019-04-04T06:10:19.092Z,99864.03
2019-04-04T06:10:50.859Z,99864.03
2019-04-04T06:11:22.121Z,99863.61
2019-04-04T06:11:54.369Z,99868.88
2019-04-04T06:12:25.763Z,99865.38
2019-04-04T06:12:57.115Z,99868.03
2019-04-04T06:13:28.383Z,99863.25
2019-04-04T06:13:59.689Z,99864.10
2019-04-04T06:14:31.124Z,99865.84
2019-04-04T06:15:04.169Z,99865.41
2019-04-04T06:15:35.403Z,99851.33
2019-04-04T06:16:06.611Z,99866.79
2019-04-04T06:16:37.806Z,99870.30
2019-04-04T06:17:09.022Z,99871.17
2019-04-04T06:17:40.274Z,99868.98
2019-04-04T06:18:12.021Z,99868.56
2019-04-04T06:18:43.627Z,99868.13
2019-04-04T06:19:15.051Z,99862.47
2019-04-04T06:19:46.415Z,99861.62
2019-04-04T06:20:17.663Z,99862.96
2019-04-04T06:20:49.103Z,99859.45
2019-04-04T06:21:20.402Z,99862.96
2019-04-04T06:21:51.562Z,99859.48
2019-04-04T06:22:22.759Z,99861.26
2019-04-04T06:22:53.892Z,99860.83
2019-04-04T06:23:25.749Z,99864.37
2019-04-04T06:23:56.975Z,99870.50
2019-04-04T06:24:28.155Z,99860.05
2019-04-04T06:24:59.974Z,99859.65